Time;durP1;ratioP1;P1;durP2;ratioP2;P2;SDS_P1;SDS_P2;PMS_P1;PMS_P2;Temp;Humidity;BMP_temperature;BMP_pressure;BME280_temperature;BME280_humidity;BME280_pressure;Samples;Min_cycle;Max_cycle;Signal;HPM_P1;HPM_P2
2023/01/30 00:00:56;;;;;;;;;;;;;;;;;;4959058;28;7130;-75
2023/01/30 00:03:23;;;;;;;;;;;;;;;;;;4958830;28;7078;-75
2023/01/30 00:08:52;;;;;;;;;;;;;;;;;;4958760;28;6679;-75
2023/01/30 00:11:18;;;;;;;;;;;;;;;;;;4959609;28;7027;-75
2023/01/30 00:16:41;;;;;;;;;;;;;;;;;;4958970;28;6983;-75
2023/01/30 00:19:14;;;;;;;;;;;;;;;;;;4956118;28;7186;-75
2023/01/30 00:21:39;;;;;;;;;;;;;;;;;;4945526;28;6970;-75
2023/01/30 00:27:16;;;;;;;;;;;;;;;;;;4940508;28;6678;-75
2023/01/30 00:29:42;;;;;;;;;;;;;;;;;;4946343;28;7177;-75
2023/01/30 00:32:16;;;;;;;;;;;;;;;;;;4958718;28;7129;-75
2023/01/30 00:34:42;;;;;;;;;;;;;;;;;;4958432;28;7402;-75
2023/01/30 00:37:07;;;;;;;;;;;;;;;;;;4959433;28;6914;-75
2023/01/30 00:39:33;;;;;;;;;;;;;;;;;;4958248;28;7135;-75
2023/01/30 00:47:38;;;;;;;;;;;;;;;;;;4995425;28;6799;-75
2023/01/30 00:50:04;;;;;;;;;;;;;;;;;;4996970;28;7108;-75
2023/01/30 00:52:30;;;;;;;;;;;;;;;;;;4996507;28;7166;-75
2023/01/30 00:57:58;;;;;;;;;;;;;;;;;;4996405;28;6933;-76
2023/01/30 01:00:23;;;;;;;;;;;;;;;;;;4997591;28;6874;-76
2023/01/30 01:02:50;;;;;;;;;;;;;;;;;;4997117;28;7074;-76
2023/01/30 01:05:15;;;;;;;;;;;;;;;;;;4997478;28;7411;-76
2023/01/30 01:07:41;;;;;;;;;;;;;;;;;;4997173;28;7077;-76
2023/01/30 01:13:40;;;;;;;;;;;;;;;;;;5015873;28;6939;-76
2023/01/30 01:19:14;;;;;;;;;;;;;;;;;;5012733;28;6974;-76
2023/01/30 01:21:40;;;;;;;;;;;;;;;;;;4996351;28;7161;-76
2023/01/30 01:24:11;;;;;;;;;;;;;;;;;;4996354;28;7056;-76
2023/01/30 01:26:36;;;;;;;;;;;;;;;;;;4996199;28;7199;-76
2023/01/30 01:29:15;;;;;;;;;;;;;;;;;;4996252;28;7345;-76
2023/01/30 01:31:42;;;;;;;;;;;;;;;;;;4996122;28;6988;-76
2023/01/30 01:37:10;;;;;;;;;;;;;;;;;;4995806;28;6681;-76
2023/01/30 01:42:49;;;;;;;;;;;;;;;;;;4996314;28;6957;-76
2023/01/30 01:45:17;;;;;;;;;;;;;;;;;;4996886;28;7160;-76
2023/01/30 01:47:46;;;;;;;;;;;;;;;;;;4995950;28;7139;-76
2023/01/30 01:53:17;;;;;;;;;;;;;;;;;;4995431;28;6929;-75
2023/01/30 01:55:48;;;;;;;;;;;;;;;;;;4977899;28;7424;-75
2023/01/30 01:58:17;;;;;;;;;;;;;;;;;;4996551;28;7049;-75
2023/01/30 02:00:47;;;;;;;;;;;;;;;;;;4995151;28;7439;-75
2023/01/30 02:03:17;;;;;;;;;;;;;;;;;;4995610;28;7376;-75
2023/01/30 02:05:47;;;;;;;;;;;;;;;;;;4995552;28;7266;-75
2023/01/30 02:08:20;;;;;;;;;;;;;;;;;;4978175;28;8779;-76
2023/01/30 02:10:46;;;;;;;;;;;;;;;;;;4995365;28;7063;-76
2023/01/30 02:13:11;;;;;;;;;;;;;;;;;;4995381;28;7005;-76
2023/01/30 02:15:52;;;;;;;;;;;;;;;;;;4995421;28;7210;-74
2023/01/30 02:18:18;;;;;;;;;;;;;;;;;;4995477;28;7642;-74
2023/01/30 02:20:44;;;;;;;;;;;;;;;;;;4994922;28;7198;-74
2023/01/30 02:23:29;;;;;;;;;;;;;;;;;;4994972;28;7149;-71
2023/01/30 02:26:00;;;;;;;;;;;;;;;;;;4993375;28;6941;-71
2023/01/30 02:28:46;;;;;;;;;;;;;;;;;;4994584;28;7133;-72
2023/01/30 02:31:21;;;;;;;;;;;;;;;;;;4994843;28;6973;-71
2023/01/30 02:34:16;;;;;;;;;;;;;;;;;;4994853;28;7226;-71
2023/01/30 02:36:47;;;;;;;;;;;;;;;;;;4993656;28;7389;-71
2023/01/30 02:39:38;;;;;;;;;;;;;;;;;;4992497;28;7426;-72
2023/01/30 02:42:22;;;;;;;;;;;;;;;;;;4993929;28;7237;-71
2023/01/30 02:44:52;;;;;;;;;;;;;;;;;;4994453;28;7170;-71
2023/01/30 02:50:41;;;;;;;;;;;;;;;;;;4956129;29;6946;-71
2023/01/30 02:53:07;;;;;;;;;;;;;;;;;;4956363;29;7252;-71
2023/01/30 02:55:44;;;;;;;;;;;;;;;;;;4956277;29;7230;-71
2023/01/30 02:58:10;;;;;;;;;;;;;;;;;;4956256;29;7226;-71
2023/01/30 03:03:56;;;;;;;;;;;;;;;;;;4956313;29;7047;-70
2023/01/30 03:12:35;;;;;;;;;;;;;;;;;;4958110;28;6946;-69
2023/01/30 03:15:00;;;;;;;;;;;;;;;;;;4959955;28;7594;-69
2023/01/30 03:17:28;;;;;;;;;;;;;;;;;;4959816;28;7131;-69
2023/01/30 03:19:55;;;;;;;;;;;;;;;;;;4959151;28;7252;-69
2023/01/30 03:25:27;;;;;;;;;;;;;;;;;;4959560;28;6686;-69
2023/01/30 03:28:01;;;;;;;;;;;;;;;;;;4959345;28;8152;-70
2023/01/30 03:30:26;;;;;;;;;;;;;;;;;;4959574;28;7205;-70
2023/01/30 03:32:52;;;;;;;;;;;;;;;;;;4959463;28;7191;-69
2023/01/30 03:35:25;;;;;;;;;;;;;;;;;;4959584;28;7115;-70
2023/01/30 03:37:51;;;;;;;;;;;;;;;;;;4959437;28;6820;-72
2023/01/30 03:40:23;;;;;;;;;;;;;;;;;;4959063;28;7098;-69
2023/01/30 03:42:49;;;;;;;;;;;;;;;;;;4956570;28;7000;-70
2023/01/30 03:45:15;;;;;;;;;;;;;;;;;;4958837;28;7046;-70
2023/01/30 03:47:41;;;;;;;;;;;;;;;;;;4958717;28;7887;-70
2023/01/30 03:50:36;;;;;;;;;;;;;;;;;;4956178;28;7141;-69
2023/01/30 03:53:02;;;;;;;;;;;;;;;;;;4957889;28;7177;-73
2023/01/30 03:58:37;;;;;;;;;;;;;;;;;;4958860;28;6924;-70
2023/01/30 04:01:03;;;;;;;;;;;;;;;;;;4958596;28;6995;-70
2023/01/30 04:03:28;;;;;;;;;;;;;;;;;;4958850;28;7064;-70
2023/01/30 04:05:54;;;;;;;;;;;;;;;;;;4959028;28;7099;-70
2023/01/30 04:08:19;;;;;;;;;;;;;;;;;;4970211;28;7153;-70
2023/01/30 04:10:45;;;;;;;;;;;;;;;;;;4958885;28;7027;-70
2023/01/30 04:13:15;;;;;;;;;;;;;;;;;;4958770;28;7088;-70
2023/01/30 04:15:40;;;;;;;;;;;;;;;;;;4958519;28;7094;-70
2023/01/30 04:18:06;;;;;;;;;;;;;;;;;;4958700;28;7151;-70
2023/01/30 04:20:31;;;;;;;;;;;;;;;;;;4942949;28;8239;-70
2023/01/30 04:23:08;;;;;;;;;;;;;;;;;;4953379;28;6938;-70
2023/01/30 04:25:33;;;;;;;;;;;;;;;;;;4947897;28;7212;-70
2023/01/30 04:28:09;;;;;;;;;;;;;;;;;;4958290;28;7192;-70
2023/01/30 04:30:35;;;;;;;;;;;;;;;;;;4958432;28;6953;-70
2023/01/30 04:33:00;;;;;;;;;;;;;;;;;;4958241;28;7314;-70
2023/01/30 04:35:28;;;;;;;;;;;;;;;;;;4957962;28;7633;-70
2023/01/30 04:37:54;;;;;;;;;;;;;;;;;;4957975;28;7483;-70
2023/01/30 04:40:19;;;;;;;;;;;;;;;;;;4958448;28;7121;-69
2023/01/30 04:42:45;;;;;;;;;;;;;;;;;;4958197;28;7353;-70
2023/01/30 04:45:10;;;;;;;;;;;;;;;;;;4958235;28;7192;-70
2023/01/30 04:47:36;;;;;;;;;;;;;;;;;;4958523;28;7103;-70
2023/01/30 04:50:14;;;;;;;;;;;;;;;;;;4956797;28;8525;-70
2023/01/30 04:52:39;;;;;;;;;;;;;;;;;;4958488;28;6982;-70
2023/01/30 04:55:05;;;;;;;;;;;;;;;;;;4958089;28;7121;-70
2023/01/30 04:57:30;;;;;;;;;;;;;;;;;;4957645;28;7076;-71
2023/01/30 05:00:05;;;;;;;;;;;;;;;;;;4957428;28;7175;-71
2023/01/30 05:02:30;;;;;;;;;;;;;;;;;;4955258;28;7069;-71
2023/01/30 05:05:19;;;;;;;;;;;;;;;;;;4957400;28;7135;-71
2023/01/30 05:07:45;;;;;;;;;;;;;;;;;;4954796;28;7431;-71
2023/01/30 05:10:22;;;;;;;;;;;;;;;;;;4957015;28;7403;-70
2023/01/30 05:12:48;;;;;;;;;;;;;;;;;;4957426;28;7990;-71
2023/01/30 05:15:13;;;;;;;;;;;;;;;;;;4957183;28;7095;-71
2023/01/30 05:17:39;;;;;;;;;;;;;;;;;;4957184;28;7174;-71
2023/01/30 05:20:08;;;;;;;;;;;;;;;;;;4956625;28;8249;-70
2023/01/30 05:22:34;;;;;;;;;;;;;;;;;;4956742;28;7056;-70
2023/01/30 05:25:35;;;;;;;;;;;;;;;;;;4957448;28;6921;-71
2023/01/30 05:28:00;;;;;;;;;;;;;;;;;;4957038;28;7262;-70
2023/01/30 05:30:39;;;;;;;;;;;;;;;;;;4951815;28;7036;-74
2023/01/30 05:33:04;;;;;;;;;;;;;;;;;;4957127;28;7040;-74
2023/01/30 05:35:39;;;;;;;;;;;;;;;;;;4956272;28;7116;-74
2023/01/30 05:38:04;;;;;;;;;;;;;;;;;;4954226;28;7820;-70
2023/01/30 05:40:53;;;;;;;;;;;;;;;;;;4956443;28;7204;-70
2023/01/30 05:43:19;;;;;;;;;;;;;;;;;;4971004;28;8497;-74
2023/01/30 05:45:51;;;;;;;;;;;;;;;;;;4961472;28;7369;-74
2023/01/30 05:48:16;;;;;;;;;;;;;;;;;;4995654;28;7322;-71
2023/01/30 05:50:41;;;;;;;;;;;;;;;;;;4995669;28;7074;-70
2023/01/30 05:53:09;;;;;;;;;;;;;;;;;;4995545;28;7217;-73
2023/01/30 05:55:34;;;;;;;;;;;;;;;;;;4995632;28;7160;-74
2023/01/30 05:58:00;;;;;;;;;;;;;;;;;;4995112;28;6922;-74
2023/01/30 06:00:25;;;;;;;;;;;;;;;;;;4991266;28;7037;-74
2023/01/30 06:03:04;;;;;;;;;;;;;;;;;;4995591;28;7101;-74
2023/01/30 06:05:29;;;;;;;;;;;;;;;;;;4995127;28;7368;-74
2023/01/30 06:08:04;;;;;;;;;;;;;;;;;;4995273;28;7094;-71
2023/01/30 06:10:29;;;;;;;;;;;;;;;;;;4995108;28;7258;-70
2023/01/30 06:13:04;;;;;;;;;;;;;;;;;;4995461;28;7046;-70
2023/01/30 06:15:29;;;;;;;;;;;;;;;;;;4987650;28;7042;-70
2023/01/30 06:20:48;;;;;;;;;;;;;;;;;;4995399;28;6811;-70
2023/01/30 06:26:12;;;;;;;;;;;;;;;;;;4992149;28;6927;-68
2023/01/30 06:28:38;;;;;;;;;;;;;;;;;;4995251;28;7257;-68
2023/01/30 06:31:05;;;;;;;;;;;;;;;;;;4981070;28;6905;-69
2023/01/30 06:36:33;;;;;;;;;;;;;;;;;;4975358;28;7097;-68
2023/01/30 06:38:59;;;;;;;;;;;;;;;;;;5001705;28;7941;-68
2023/01/30 06:41:37;;;;;;;;;;;;;;;;;;5015897;28;6811;-68
2023/01/30 06:44:03;;;;;;;;;;;;;;;;;;5013309;28;7408;-68
2023/01/30 06:49:41;;;;;;;;;;;;;;;;;;5018480;28;6718;-69
2023/01/30 06:52:06;;;;;;;;;;;;;;;;;;5000757;28;8616;-69
2023/01/30 06:54:51;;;;;;;;;;;;;;;;;;5018617;28;7274;-68
2023/01/30 06:57:17;;;;;;;;;;;;;;;;;;5018590;28;7432;-69
2023/01/30 07:02:48;;;;;;;;;;;;;;;;;;5018159;28;7058;-69
2023/01/30 07:05:13;;;;;;;;;;;;;;;;;;5018560;28;7264;-67
2023/01/30 07:07:39;;;;;;;;;;;;;;;;;;5128178;23;8591;-67
2023/01/30 07:10:06;;;;;;;;;;;;;;;;;;5037544;28;7068;-67
2023/01/30 07:12:32;;;;;;;;;;;;;;;;;;5038173;28;7898;-67
2023/01/30 07:14:57;;;;;;;;;;;;;;;;;;5038425;28;6977;-67
2023/01/30 07:20:33;;;;;;;;;;;;;;;;;;5037739;28;6944;-67
2023/01/30 07:22:59;;;;;;;;;;;;;;;;;;5038019;28;6933;-67
2023/01/30 07:25:26;;;;;;;;;;;;;;;;;;5034236;28;7293;-67
2023/01/30 07:28:04;;;;;;;;;;;;;;;;;;5018091;28;7037;-67
2023/01/30 07:30:34;;;;;;;;;;;;;;;;;;5017231;28;8767;-67
2023/01/30 07:33:10;;;;;;;;;;;;;;;;;;5017319;28;8696;-67
2023/01/30 07:35:37;;;;;;;;;;;;;;;;;;5018099;28;7040;-67
2023/01/30 07:38:09;;;;;;;;;;;;;;;;;;5000274;28;8437;-67
2023/01/30 07:40:34;;;;;;;;;;;;;;;;;;5000184;28;8412;-67
2023/01/30 07:49:07;;;;;;;;;;;;;;;;;;5017077;28;6901;-68
2023/01/30 07:51:32;;;;;;;;;;;;;;;;;;5017300;28;7044;-67
2023/01/30 07:54:13;;;;;;;;;;;;;;;;;;5017663;28;7489;-67
2023/01/30 07:56:38;;;;;;;;;;;;;;;;;;5017527;28;7150;-67
2023/01/30 07:59:04;;;;;;;;;;;;;;;;;;5016867;28;7139;-67
2023/01/30 08:01:30;;;;;;;;;;;;;;;;;;5017450;28;7159;-67
2023/01/30 08:03:56;;;;;;;;;;;;;;;;;;5017676;28;7126;-67
2023/01/30 08:06:21;;;;;;;;;;;;;;;;;;5013237;28;7125;-67
2023/01/30 08:08:47;;;;;;;;;;;;;;;;;;4997856;28;7415;-67
2023/01/30 08:11:12;;;;;;;;;;;;;;;;;;4997675;28;7089;-67
2023/01/30 08:13:44;;;;;;;;;;;;;;;;;;4997674;28;7351;-67
2023/01/30 08:16:09;;;;;;;;;;;;;;;;;;4997497;28;7246;-67
2023/01/30 08:18:35;;;;;;;;;;;;;;;;;;4997491;28;7033;-67
2023/01/30 08:21:06;;;;;;;;;;;;;;;;;;4997384;28;7095;-67
2023/01/30 08:23:32;;;;;;;;;;;;;;;;;;4998613;28;7174;-68
2023/01/30 08:25:59;;;;;;;;;;;;;;;;;;5013736;28;7208;-67
2023/01/30 08:28:24;;;;;;;;;;;;;;;;;;5015164;28;7230;-67
2023/01/30 08:30:52;;;;;;;;;;;;;;;;;;5003895;28;7327;-66
2023/01/30 08:33:27;;;;;;;;;;;;;;;;;;4997426;28;7473;-68
2023/01/30 08:35:54;;;;;;;;;;;;;;;;;;5014400;28;6940;-67
2023/01/30 08:38:42;;;;;;;;;;;;;;;;;;5015703;28;7247;-67
2023/01/30 08:41:08;;;;;;;;;;;;;;;;;;5005296;28;7186;-67
2023/01/30 08:49:51;;;;;;;;;;;;;;;;;;5001359;28;6838;-67
2023/01/30 08:52:18;;;;;;;;;;;;;;;;;;5014383;28;8219;-67
2023/01/30 08:57:56;;;;;;;;;;;;;;;;;;5016129;28;6912;-67
2023/01/30 09:00:22;;;;;;;;;;;;;;;;;;5017302;28;7092;-67
2023/01/30 09:02:47;;;;;;;;;;;;;;;;;;5066120;23;7130;-67
2023/01/30 09:05:13;;;;;;;;;;;;;;;;;;5035344;28;6997;-67
2023/01/30 09:07:38;;;;;;;;;;;;;;;;;;5036059;28;6992;-67
2023/01/30 09:10:04;;;;;;;;;;;;;;;;;;5034728;28;6920;-67
2023/01/30 09:15:32;;;;;;;;;;;;;;;;;;5035718;28;7016;-67
2023/01/30 09:17:58;;;;;;;;;;;;;;;;;;5035737;28;7187;-67
2023/01/30 09:20:42;;;;;;;;;;;;;;;;;;5029600;28;7215;-67
2023/01/30 09:23:08;;;;;;;;;;;;;;;;;;5015961;28;7390;-67
2023/01/30 09:25:36;;;;;;;;;;;;;;;;;;5015860;28;7396;-67
2023/01/30 09:28:02;;;;;;;;;;;;;;;;;;5015589;28;6923;-67
2023/01/30 09:33:52;;;;;;;;;;;;;;;;;;5015482;28;7056;-67
2023/01/30 09:36:17;;;;;;;;;;;;;;;;;;5015698;28;7039;-67
2023/01/30 09:41:49;;;;;;;;;;;;;;;;;;5015870;28;7106;-67
2023/01/30 09:44:21;;;;;;;;;;;;;;;;;;5016407;28;7179;-67
2023/01/30 09:47:05;;;;;;;;;;;;;;;;;;5016322;28;6923;-67
2023/01/30 09:49:30;;;;;;;;;;;;;;;;;;5015469;28;7230;-67
2023/01/30 09:52:15;;;;;;;;;;;;;;;;;;5015281;28;7051;-67
2023/01/30 09:54:43;;;;;;;;;;;;;;;;;;5015172;28;7066;-67
2023/01/30 09:57:10;;;;;;;;;;;;;;;;;;5015246;28;7137;-67
2023/01/30 10:08:36;;;;;;;;;;;;;;;;;;4935600;29;6937;-67
2023/01/30 10:17:13;;;;;;;;;;;;;;;;;;4951904;28;6761;-67
2023/01/30 10:23:13;;;;;;;;;;;;;;;;;;4954838;28;6712;-67
2023/01/30 10:34:58;;;;;;;;;;;;;;;;;;4954677;28;6676;-67
2023/01/30 10:40:58;;;;;;;;;;;;;;;;;;4960775;28;6722;-67
2023/01/30 10:49:49;;;;;;;;;;;;;;;;;;5014507;28;6941;-67
2023/01/30 10:52:17;;;;;;;;;;;;;;;;;;5014695;28;7131;-67
2023/01/30 11:00:58;;;;;;;;;;;;;;;;;;5014498;28;6675;-67
2023/01/30 11:06:30;;;;;;;;;;;;;;;;;;5014794;28;6698;-67
2023/01/30 11:08:56;;;;;;;;;;;;;;;;;;5014453;28;7054;-67
2023/01/30 11:11:25;;;;;;;;;;;;;;;;;;5014527;28;7129;-67
2023/01/30 11:23:24;;;;;;;;;;;;;;;;;;5014196;28;6698;-67
2023/01/30 11:28:52;;;;;;;;;;;;;;;;;;5014147;28;6932;-67
2023/01/30 11:31:45;;;;;;;;;;;;;;;;;;5014404;28;7021;-67
2023/01/30 11:40:15;;;;;;;;;;;;;;;;;;5017774;28;6934;-67
2023/01/30 11:42:43;;;;;;;;;;;;;;;;;;5018083;28;7033;-67
2023/01/30 11:45:10;;;;;;;;;;;;;;;;;;5017908;28;7149;-67
2023/01/30 11:47:36;;;;;;;;;;;;;;;;;;5017769;28;7059;-67
2023/01/30 11:50:02;;;;;;;;;;;;;;;;;;5017660;28;7153;-67
2023/01/30 11:58:48;;;;;;;;;;;;;;;;;;5017376;28;7456;-67
2023/01/30 12:04:19;;;;;;;;;;;;;;;;;;5016265;28;6988;-69
2023/01/30 12:07:02;;;;;;;;;;;;;;;;;;5017515;28;7154;-69
2023/01/30 12:12:48;;;;;;;;;;;;;;;;;;5017046;28;6674;-69
2023/01/30 12:18:20;;;;;;;;;;;;;;;;;;5017336;28;6960;-68
2023/01/30 12:23:49;;;;;;;;;;;;;;;;;;5017085;28;6801;-68
2023/01/30 12:26:19;;;;;;;;;;;;;;;;;;5017463;28;6925;-69
2023/01/30 12:28:50;;;;;;;;;;;;;;;;;;5017012;28;6944;-68
2023/01/30 12:34:20;;;;;;;;;;;;;;;;;;5016771;28;6931;-68
2023/01/30 12:36:48;;;;;;;;;;;;;;;;;;5016430;28;7834;-68
2023/01/30 12:39:14;;;;;;;;;;;;;;;;;;5016833;28;7363;-68
2023/01/30 12:44:55;;;;;;;;;;;;;;;;;;5016558;28;6690;-68
2023/01/30 12:47:21;;;;;;;;;;;;;;;;;;5017575;28;7117;-68
2023/01/30 12:49:47;;;;;;;;;;;;;;;;;;5016630;28;7102;-68
2023/01/30 13:01:03;;;;;;;;;;;;;;;;;;5016693;28;7537;-68
2023/01/30 13:03:31;;;;;;;;;;;;;;;;;;5015950;28;7080;-68
2023/01/30 13:06:16;;;;;;;;;;;;;;;;;;5015972;28;7950;-68
2023/01/30 13:08:52;;;;;;;;;;;;;;;;;;5016405;28;7216;-68
2023/01/30 13:14:37;;;;;;;;;;;;;;;;;;5016376;28;6965;-68
2023/01/30 13:17:17;;;;;;;;;;;;;;;;;;5016884;28;7175;-68
2023/01/30 13:19:51;;;;;;;;;;;;;;;;;;5016075;28;7161;-68
2023/01/30 13:22:29;;;;;;;;;;;;;;;;;;5015606;28;6958;-68
2023/01/30 13:24:55;;;;;;;;;;;;;;;;;;5016227;28;7099;-68
2023/01/30 13:27:44;;;;;;;;;;;;;;;;;;5015934;28;7392;-68
2023/01/30 13:33:20;;;;;;;;;;;;;;;;;;5015538;28;6915;-68
2023/01/30 13:41:55;;;;;;;;;;;;;;;;;;5015306;28;6677;-68
2023/01/30 13:44:26;;;;;;;;;;;;;;;;;;5022752;28;7275;-69
2023/01/30 13:47:15;;;;;;;;;;;;;;;;;;5035330;28;7054;-68
2023/01/30 13:53:21;;;;;;;;;;;;;;;;;;5035405;28;6912;-68
2023/01/30 14:01:52;;;;;;;;;;;;;;;;;;5035351;28;6962;-68
2023/01/30 14:07:31;;;;;;;;;;;;;;;;;;5034941;28;6706;-68
2023/01/30 14:10:09;;;;;;;;;;;;;;;;;;5034930;28;7372;-68
2023/01/30 14:12:43;;;;;;;;;;;;;;;;;;5034792;28;6971;-68
2023/01/30 14:15:12;;;;;;;;;;;;;;;;;;5034859;28;7181;-68
2023/01/30 14:17:38;;;;;;;;;;;;;;;;;;5034765;28;7093;-68
2023/01/30 14:20:22;;;;;;;;;;;;;;;;;;5034896;28;7596;-68
2023/01/30 14:23:17;;;;;;;;;;;;;;;;;;5034722;28;7126;-68
2023/01/30 14:25:44;;;;;;;;;;;;;;;;;;5034764;28;7467;-68
2023/01/30 14:28:37;;;;;;;;;;;;;;;;;;5035271;28;6924;-68
2023/01/30 14:34:26;;;;;;;;;;;;;;;;;;5034423;28;6933;-68
2023/01/30 14:36:51;;;;;;;;;;;;;;;;;;5034579;28;7254;-69
2023/01/30 14:39:36;;;;;;;;;;;;;;;;;;5034630;28;7160;-69
2023/01/30 14:45:14;;;;;;;;;;;;;;;;;;5007775;28;6983;-68
2023/01/30 14:48:12;;;;;;;;;;;;;;;;;;5014865;28;7106;-69
2023/01/30 14:53:56;;;;;;;;;;;;;;;;;;5014453;28;6678;-68
2023/01/30 14:59:42;;;;;;;;;;;;;;;;;;5014416;28;6918;-69
2023/01/30 15:02:11;;;;;;;;;;;;;;;;;;5014315;28;7196;-69
2023/01/30 15:04:39;;;;;;;;;;;;;;;;;;5012837;28;7127;-69
2023/01/30 15:10:16;;;;;;;;;;;;;;;;;;5019015;28;7017;-69
2023/01/30 15:16:03;;;;;;;;;;;;;;;;;;5037896;28;6697;-69
2023/01/30 15:33:50;;;;;;;;;;;;;;;;;;4957852;28;7116;-69
2023/01/30 15:36:21;;;;;;;;;;;;;;;;;;4957724;28;7027;-69
2023/01/30 15:38:55;;;;;;;;;;;;;;;;;;4957503;28;7120;-74
2023/01/30 15:41:21;;;;;;;;;;;;;;;;;;4958257;28;7191;-72
2023/01/30 15:43:46;;;;;;;;;;;;;;;;;;4957825;28;6998;-72
2023/01/30 15:49:35;;;;;;;;;;;;;;;;;;4958183;28;6798;-72
2023/01/30 15:52:05;;;;;;;;;;;;;;;;;;4957151;28;7162;-72
2023/01/30 15:54:31;;;;;;;;;;;;;;;;;;4957037;28;7205;-72
2023/01/30 16:00:01;;;;;;;;;;;;;;;;;;4968605;28;7072;-72
2023/01/30 16:02:48;;;;;;;;;;;;;;;;;;5037318;28;7057;-72
2023/01/30 16:08:28;;;;;;;;;;;;;;;;;;5036992;28;6939;-72
2023/01/30 16:10:54;;;;;;;;;;;;;;;;;;5037239;28;7421;-72
2023/01/30 16:13:22;;;;;;;;;;;;;;;;;;5037071;28;6946;-72
2023/01/30 16:16:02;;;;;;;;;;;;;;;;;;5037228;28;6985;-72
2023/01/30 16:18:50;;;;;;;;;;;;;;;;;;5035984;28;7170;-72
2023/01/30 16:21:23;;;;;;;;;;;;;;;;;;5037017;28;7234;-72
2023/01/30 16:23:55;;;;;;;;;;;;;;;;;;5036934;28;7224;-72
2023/01/30 16:26:21;;;;;;;;;;;;;;;;;;5037496;28;7273;-72
2023/01/30 16:31:45;;;;;;;;;;;;;;;;;;5036639;28;6782;-72
2023/01/30 16:34:28;;;;;;;;;;;;;;;;;;5036746;28;6969;-72
2023/01/30 16:36:55;;;;;;;;;;;;;;;;;;5036593;28;7149;-72
2023/01/30 16:39:32;;;;;;;;;;;;;;;;;;5036643;28;7322;-69
2023/01/30 16:41:59;;;;;;;;;;;;;;;;;;5016467;28;7221;-69
2023/01/30 16:47:30;;;;;;;;;;;;;;;;;;5016415;28;6684;-69
2023/01/30 16:49:56;;;;;;;;;;;;;;;;;;5047504;23;7125;-70
2023/01/30 16:52:26;;;;;;;;;;;;;;;;;;5068161;23;7217;-72
2023/01/30 16:54:53;;;;;;;;;;;;;;;;;;5015943;28;7054;-72
2023/01/30 17:03:30;;;;;;;;;;;;;;;;;;5016068;28;6773;-71
2023/01/30 17:05:57;;;;;;;;;;;;;;;;;;5015945;28;6974;-71
2023/01/30 17:08:38;;;;;;;;;;;;;;;;;;5016786;28;7258;-71
2023/01/30 17:11:03;;;;;;;;;;;;;;;;;;5016213;28;7106;-70
2023/01/30 17:13:29;;;;;;;;;;;;;;;;;;5015970;28;7334;-71
2023/01/30 17:16:27;;;;;;;;;;;;;;;;;;5016229;28;6948;-71
2023/01/30 17:18:55;;;;;;;;;;;;;;;;;;5016004;28;7149;-71
2023/01/30 17:21:22;;;;;;;;;;;;;;;;;;5015891;28;6989;-71
2023/01/30 17:26:40;;;;;;;;;;;;;;;;;;5016522;28;6882;-71
2023/01/30 17:32:14;;;;;;;;;;;;;;;;;;5014982;28;6715;-71
2023/01/30 17:37:52;;;;;;;;;;;;;;;;;;5015448;28;6698;-71
2023/01/30 17:40:19;;;;;;;;;;;;;;;;;;5015514;28;7525;-71
2023/01/30 17:42:45;;;;;;;;;;;;;;;;;;5016123;28;7135;-71
2023/01/30 17:45:23;;;;;;;;;;;;;;;;;;5015815;28;7287;-71
2023/01/30 17:47:48;;;;;;;;;;;;;;;;;;5015469;28;6979;-71
2023/01/30 17:53:17;;;;;;;;;;;;;;;;;;5009857;28;7018;-71
2023/01/30 17:55:49;;;;;;;;;;;;;;;;;;5015418;28;7057;-71
2023/01/30 17:58:18;;;;;;;;;;;;;;;;;;5014933;28;6812;-71
2023/01/30 18:01:13;;;;;;;;;;;;;;;;;;5015132;28;7447;-71
2023/01/30 18:03:39;;;;;;;;;;;;;;;;;;5016034;28;7189;-71
2023/01/30 18:09:41;;;;;;;;;;;;;;;;;;5014966;28;6998;-71
2023/01/30 18:12:07;;;;;;;;;;;;;;;;;;5015081;28;7233;-71
2023/01/30 18:14:32;;;;;;;;;;;;;;;;;;5015244;28;7116;-71
2023/01/30 18:17:16;;;;;;;;;;;;;;;;;;5014999;28;7212;-71
2023/01/30 18:19:41;;;;;;;;;;;;;;;;;;5015519;28;7512;-71
2023/01/30 18:22:27;;;;;;;;;;;;;;;;;;5015412;28;7196;-71
2023/01/30 18:24:52;;;;;;;;;;;;;;;;;;5014713;28;6895;-71
2023/01/30 18:27:37;;;;;;;;;;;;;;;;;;5015731;28;7015;-71
2023/01/30 18:30:02;;;;;;;;;;;;;;;;;;5014996;28;6968;-71
2023/01/30 18:32:47;;;;;;;;;;;;;;;;;;5014728;28;7587;-71
2023/01/30 18:35:13;;;;;;;;;;;;;;;;;;5014822;28;7043;-71
2023/01/30 18:40:41;;;;;;;;;;;;;;;;;;5014658;28;6937;-71
2023/01/30 18:43:07;;;;;;;;;;;;;;;;;;5020283;28;7375;-71
2023/01/30 18:48:43;;;;;;;;;;;;;;;;;;5021240;28;6940;-71
2023/01/30 18:54:11;;;;;;;;;;;;;;;;;;5009946;28;7009;-71
2023/01/30 18:56:37;;;;;;;;;;;;;;;;;;5021245;28;7172;-71
2023/01/30 18:59:04;;;;;;;;;;;;;;;;;;5021329;28;7215;-71
2023/01/30 19:01:41;;;;;;;;;;;;;;;;;;5021438;28;7161;-71
2023/01/30 19:04:08;;;;;;;;;;;;;;;;;;5021215;28;6970;-71
2023/01/30 19:09:37;;;;;;;;;;;;;;;;;;5020850;28;6683;-71
2023/01/30 19:14:48;;;;;;;;;;;;;;;;;;5021178;28;7024;-71
2023/01/30 19:17:15;;;;;;;;;;;;;;;;;;5011766;28;7134;-71
2023/01/30 19:19:47;;;;;;;;;;;;;;;;;;5001052;28;7088;-71
2023/01/30 19:22:13;;;;;;;;;;;;;;;;;;5001129;28;7270;-72
2023/01/30 19:24:39;;;;;;;;;;;;;;;;;;5001301;28;6920;-72
2023/01/30 19:30:03;;;;;;;;;;;;;;;;;;5002182;28;7184;-72
2023/01/30 19:32:29;;;;;;;;;;;;;;;;;;5001683;28;7123;-72
2023/01/30 19:34:54;;;;;;;;;;;;;;;;;;5001502;28;6903;-72
2023/01/30 19:37:20;;;;;;;;;;;;;;;;;;5001020;28;7102;-72
2023/01/30 19:39:45;;;;;;;;;;;;;;;;;;5002037;28;7002;-72
2023/01/30 19:42:30;;;;;;;;;;;;;;;;;;5001197;28;6921;-72
2023/01/30 19:44:55;;;;;;;;;;;;;;;;;;5000821;28;8046;-72
2023/01/30 19:50:24;;;;;;;;;;;;;;;;;;5000841;28;6679;-72
2023/01/30 19:52:52;;;;;;;;;;;;;;;;;;5000328;28;7149;-72
2023/01/30 19:55:19;;;;;;;;;;;;;;;;;;4996584;28;7026;-72
2023/01/30 19:57:45;;;;;;;;;;;;;;;;;;4997766;28;7207;-72
2023/01/30 20:03:15;;;;;;;;;;;;;;;;;;5017259;28;6765;-72
2023/01/30 20:12:20;;;;;;;;;;;;;;;;;;5017237;28;6686;-72
2023/01/30 20:14:46;;;;;;;;;;;;;;;;;;5017687;28;7043;-72
2023/01/30 20:17:43;;;;;;;;;;;;;;;;;;5017194;28;7055;-72
2023/01/30 20:20:09;;;;;;;;;;;;;;;;;;5017767;28;9099;-72
2023/01/30 20:28:49;;;;;;;;;;;;;;;;;;4997492;28;6986;-72
2023/01/30 20:31:17;;;;;;;;;;;;;;;;;;4997460;28;6971;-72
2023/01/30 20:33:43;;;;;;;;;;;;;;;;;;4997378;28;7173;-72
2023/01/30 20:36:33;;;;;;;;;;;;;;;;;;4997049;28;6932;-72
2023/01/30 20:39:02;;;;;;;;;;;;;;;;;;4997169;28;6953;-72
2023/01/30 20:45:02;;;;;;;;;;;;;;;;;;4997083;28;6932;-72
2023/01/30 20:47:27;;;;;;;;;;;;;;;;;;4997292;28;7237;-72
2023/01/30 20:50:02;;;;;;;;;;;;;;;;;;4997174;28;7139;-72
2023/01/30 20:55:30;;;;;;;;;;;;;;;;;;4993131;28;6669;-72
2023/01/30 20:57:56;;;;;;;;;;;;;;;;;;5007718;28;7309;-71
2023/01/30 21:00:21;;;;;;;;;;;;;;;;;;5015184;28;7244;-71
2023/01/30 21:02:49;;;;;;;;;;;;;;;;;;5008496;28;7138;-71
2023/01/30 21:05:15;;;;;;;;;;;;;;;;;;5016050;28;7177;-71
2023/01/30 21:08:12;;;;;;;;;;;;;;;;;;5016211;28;7148;-71
2023/01/30 21:10:45;;;;;;;;;;;;;;;;;;5016274;28;7452;-71
2023/01/30 21:13:10;;;;;;;;;;;;;;;;;;5014630;28;6966;-71
2023/01/30 21:15:58;;;;;;;;;;;;;;;;;;5016176;28;6981;-71
2023/01/30 21:18:23;;;;;;;;;;;;;;;;;;5016127;28;7448;-71
2023/01/30 21:20:49;;;;;;;;;;;;;;;;;;5016955;28;6913;-71
2023/01/30 21:26:18;;;;;;;;;;;;;;;;;;5015749;28;6960;-71
2023/01/30 21:28:44;;;;;;;;;;;;;;;;;;5010405;28;7178;-71
2023/01/30 21:31:11;;;;;;;;;;;;;;;;;;5016776;28;7219;-71
2023/01/30 21:36:40;;;;;;;;;;;;;;;;;;5015684;28;6679;-71
2023/01/30 21:45:43;;;;;;;;;;;;;;;;;;5015493;28;6973;-68
2023/01/30 21:48:08;;;;;;;;;;;;;;;;;;5015578;28;7043;-68
2023/01/30 21:51:00;;;;;;;;;;;;;;;;;;5015568;28;7149;-68
2023/01/30 21:53:26;;;;;;;;;;;;;;;;;;5015022;28;7195;-68
2023/01/30 21:56:00;;;;;;;;;;;;;;;;;;5015126;28;7561;-68
2023/01/30 21:58:28;;;;;;;;;;;;;;;;;;5015288;28;7034;-68
2023/01/30 22:10:03;;;;;;;;;;;;;;;;;;5014296;28;7013;-68
2023/01/30 22:12:30;;;;;;;;;;;;;;;;;;5010379;28;7186;-68
2023/01/30 22:15:14;;;;;;;;;;;;;;;;;;5014939;28;7162;-68
2023/01/30 22:17:40;;;;;;;;;;;;;;;;;;5014446;28;7141;-68
2023/01/30 22:20:05;;;;;;;;;;;;;;;;;;5014971;28;7102;-68
2023/01/30 22:25:34;;;;;;;;;;;;;;;;;;5014899;28;6694;-68
2023/01/30 22:34:46;;;;;;;;;;;;;;;;;;5015015;28;6905;-68
2023/01/30 22:37:12;;;;;;;;;;;;;;;;;;5014969;28;6946;-68
2023/01/30 22:42:53;;;;;;;;;;;;;;;;;;5014868;28;6904;-68
2023/01/30 22:45:18;;;;;;;;;;;;;;;;;;5014822;28;7139;-68
2023/01/30 22:47:44;;;;;;;;;;;;;;;;;;5014818;28;7152;-68
2023/01/30 22:50:22;;;;;;;;;;;;;;;;;;5014649;28;7126;-68
2023/01/30 22:52:48;;;;;;;;;;;;;;;;;;5014653;28;7152;-68
2023/01/30 22:55:13;;;;;;;;;;;;;;;;;;5011742;28;7053;-68
2023/01/30 23:03:45;;;;;;;;;;;;;;;;;;4994871;28;6750;-68
2023/01/30 23:06:16;;;;;;;;;;;;;;;;;;4995110;28;7146;-68
2023/01/30 23:08:58;;;;;;;;;;;;;;;;;;4995595;28;7099;-68
2023/01/30 23:11:26;;;;;;;;;;;;;;;;;;4995257;28;7164;-68
2023/01/30 23:13:55;;;;;;;;;;;;;;;;;;4994942;28;7393;-68
2023/01/30 23:16:23;;;;;;;;;;;;;;;;;;4995328;28;7113;-68
2023/01/30 23:18:57;;;;;;;;;;;;;;;;;;4995529;28;7606;-68
2023/01/30 23:21:34;;;;;;;;;;;;;;;;;;4995419;28;6974;-68
2023/01/30 23:24:27;;;;;;;;;;;;;;;;;;4994909;28;7100;-68
2023/01/30 23:26:53;;;;;;;;;;;;;;;;;;4990663;28;8298;-68
2023/01/30 23:29:19;;;;;;;;;;;;;;;;;;4978725;28;9573;-68
2023/01/30 23:31:46;;;;;;;;;;;;;;;;;;4998460;28;7167;-67
2023/01/30 23:34:16;;;;;;;;;;;;;;;;;;4998539;28;7158;-68
2023/01/30 23:39:44;;;;;;;;;;;;;;;;;;4998088;28;6966;-68
2023/01/30 23:42:09;;;;;;;;;;;;;;;;;;4998282;28;7225;-68